sensor_id;sensor_type;location;lat;lon;timestamp;P1;durP1;ratioP1;P2;durP2;ratioP2
73454;SDS011;61690;51.824;6.306;2023-03-23T00:02:22;8.43;;;4.00;;
73454;SDS011;61690;51.824;6.306;2023-03-23T00:04:49;8.07;;;4.10;;
73454;SDS011;61690;51.824;6.306;2023-03-23T00:07:15;7.17;;;3.90;;
73454;SDS011;61690;51.824;6.306;2023-03-23T00:09:46;7.47;;;3.90;;
73454;SDS011;61690;51.824;6.306;2023-03-23T00:12:12;8.57;;;4.20;;
73454;SDS011;61690;51.824;6.306;2023-03-23T00:14:40;9.10;;;4.25;;
73454;SDS011;61690;51.824;6.306;2023-03-23T00:17:08;8.03;;;4.00;;
73454;SDS011;61690;51.824;6.306;2023-03-23T00:19:39;8.02;;;4.25;;
73454;SDS011;61690;51.824;6.306;2023-03-23T00:22:11;8.57;;;4.20;;
73454;SDS011;61690;51.824;6.306;2023-03-23T00:24:40;7.50;;;4.05;;
73454;SDS011;61690;51.824;6.306;2023-03-23T00:27:07;8.00;;;4.38;;
73454;SDS011;61690;51.824;6.306;2023-03-23T00:29:33;8.40;;;4.30;;
73454;SDS011;61690;51.824;6.306;2023-03-23T00:31:59;7.88;;;4.40;;
73454;SDS011;61690;51.824;6.306;2023-03-23T00:34:24;7.90;;;4.10;;
73454;SDS011;61690;51.824;6.306;2023-03-23T00:36:51;8.20;;;4.03;;
73454;SDS011;61690;51.824;6.306;2023-03-23T00:39:21;7.73;;;4.10;;
73454;SDS011;61690;51.824;6.306;2023-03-23T00:41:49;8.45;;;4.25;;
73454;SDS011;61690;51.824;6.306;2023-03-23T00:44:15;7.50;;;4.07;;
73454;SDS011;61690;51.824;6.306;2023-03-23T00:46:45;8.27;;;4.47;;
73454;SDS011;61690;51.824;6.306;2023-03-23T00:49:14;9.33;;;4.47;;
73454;SDS011;61690;51.824;6.306;2023-03-23T00:51:42;8.57;;;4.05;;
73454;SDS011;61690;51.824;6.306;2023-03-23T00:54:08;9.00;;;4.50;;
73454;SDS011;61690;51.824;6.306;2023-03-23T00:56:34;8.38;;;4.18;;
73454;SDS011;61690;51.824;6.306;2023-03-23T00:59:00;8.30;;;4.67;;
73454;SDS011;61690;51.824;6.306;2023-03-23T01:01:25;8.63;;;4.55;;
73454;SDS011;61690;51.824;6.306;2023-03-23T01:03:50;9.13;;;4.80;;
73454;SDS011;61690;51.824;6.306;2023-03-23T01:06:18;9.27;;;4.38;;
73454;SDS011;61690;51.824;6.306;2023-03-23T01:08:43;8.37;;;4.60;;
73454;SDS011;61690;51.824;6.306;2023-03-23T01:11:14;9.23;;;4.30;;
73454;SDS011;61690;51.824;6.306;2023-03-23T01:13:42;9.52;;;4.60;;
73454;SDS011;61690;51.824;6.306;2023-03-23T01:16:08;8.77;;;4.27;;
73454;SDS011;61690;51.824;6.306;2023-03-23T01:18:34;9.40;;;4.50;;
73454;SDS011;61690;51.824;6.306;2023-03-23T01:21:07;9.93;;;5.00;;
73454;SDS011;61690;51.824;6.306;2023-03-23T01:23:35;8.95;;;4.63;;
73454;SDS011;61690;51.824;6.306;2023-03-23T01:26:08;8.23;;;4.63;;
73454;SDS011;61690;51.824;6.306;2023-03-23T01:28:35;8.43;;;4.23;;
73454;SDS011;61690;51.824;6.306;2023-03-23T01:31:02;8.70;;;4.68;;
73454;SDS011;61690;51.824;6.306;2023-03-23T01:33:28;8.63;;;4.70;;
73454;SDS011;61690;51.824;6.306;2023-03-23T01:35:54;9.32;;;4.50;;
73454;SDS011;61690;51.824;6.306;2023-03-23T01:38:19;8.70;;;4.50;;
73454;SDS011;61690;51.824;6.306;2023-03-23T01:40:45;9.23;;;4.40;;
73454;SDS011;61690;51.824;6.306;2023-03-23T01:43:11;7.87;;;4.67;;
73454;SDS011;61690;51.824;6.306;2023-03-23T01:45:39;9.13;;;4.40;;
73454;SDS011;61690;51.824;6.306;2023-03-23T01:48:18;10.23;;;5.55;;
73454;SDS011;61690;51.824;6.306;2023-03-23T01:51:00;9.68;;;5.40;;
73454;SDS011;61690;51.824;6.306;2023-03-23T01:53:31;9.30;;;5.00;;
73454;SDS011;61690;51.824;6.306;2023-03-23T01:56:02;9.23;;;5.03;;
73454;SDS011;61690;51.824;6.306;2023-03-23T01:58:30;8.97;;;5.00;;
73454;SDS011;61690;51.824;6.306;2023-03-23T02:00:57;9.18;;;5.03;;
73454;SDS011;61690;51.824;6.306;2023-03-23T02:03:27;9.65;;;5.18;;
73454;SDS011;61690;51.824;6.306;2023-03-23T02:05:53;9.57;;;5.68;;
73454;SDS011;61690;51.824;6.306;2023-03-23T02:08:23;10.52;;;5.93;;
73454;SDS011;61690;51.824;6.306;2023-03-23T02:10:51;10.43;;;5.70;;
73454;SDS011;61690;51.824;6.306;2023-03-23T02:13:17;10.40;;;5.72;;
73454;SDS011;61690;51.824;6.306;2023-03-23T02:27:01;10.93;;;5.80;;
73454;SDS011;61690;51.824;6.306;2023-03-23T02:35:21;11.40;;;5.97;;
73454;SDS011;61690;51.824;6.306;2023-03-23T02:37:56;11.53;;;6.10;;
73454;SDS011;61690;51.824;6.306;2023-03-23T02:40:41;10.50;;;5.72;;
73454;SDS011;61690;51.824;6.306;2023-03-23T02:43:11;10.75;;;6.15;;
73454;SDS011;61690;51.824;6.306;2023-03-23T02:45:39;11.57;;;6.18;;
73454;SDS011;61690;51.824;6.306;2023-03-23T02:48:07;11.07;;;6.20;;
73454;SDS011;61690;51.824;6.306;2023-03-23T02:50:35;12.43;;;6.57;;
73454;SDS011;61690;51.824;6.306;2023-03-23T02:53:03;11.25;;;6.22;;
73454;SDS011;61690;51.824;6.306;2023-03-23T02:55:31;11.45;;;6.40;;
73454;SDS011;61690;51.824;6.306;2023-03-23T02:57:57;12.32;;;6.35;;
73454;SDS011;61690;51.824;6.306;2023-03-23T03:00:24;12.57;;;6.35;;
73454;SDS011;61690;51.824;6.306;2023-03-23T03:02:50;11.83;;;6.70;;
73454;SDS011;61690;51.824;6.306;2023-03-23T03:05:26;11.77;;;6.20;;
73454;SDS011;61690;51.824;6.306;2023-03-23T03:08:10;10.83;;;6.27;;
73454;SDS011;61690;51.824;6.306;2023-03-23T03:13:28;11.60;;;6.30;;
73454;SDS011;61690;51.824;6.306;2023-03-23T03:16:03;13.18;;;6.70;;
73454;SDS011;61690;51.824;6.306;2023-03-23T03:18:40;10.77;;;6.65;;
73454;SDS011;61690;51.824;6.306;2023-03-23T03:21:11;11.13;;;6.47;;
73454;SDS011;61690;51.824;6.306;2023-03-23T03:23:39;11.85;;;6.78;;
73454;SDS011;61690;51.824;6.306;2023-03-23T03:26:07;11.95;;;6.28;;
73454;SDS011;61690;51.824;6.306;2023-03-23T03:28:36;11.93;;;6.90;;
73454;SDS011;61690;51.824;6.306;2023-03-23T03:31:03;11.73;;;6.60;;
73454;SDS011;61690;51.824;6.306;2023-03-23T03:33:31;12.23;;;6.40;;
73454;SDS011;61690;51.824;6.306;2023-03-23T03:35:59;11.68;;;6.63;;
73454;SDS011;61690;51.824;6.306;2023-03-23T03:38:27;13.10;;;6.97;;
73454;SDS011;61690;51.824;6.306;2023-03-23T03:40:53;11.98;;;6.65;;
73454;SDS011;61690;51.824;6.306;2023-03-23T03:43:20;12.27;;;6.78;;
73454;SDS011;61690;51.824;6.306;2023-03-23T03:45:45;12.40;;;6.70;;
73454;SDS011;61690;51.824;6.306;2023-03-23T03:48:11;11.93;;;6.57;;
73454;SDS011;61690;51.824;6.306;2023-03-23T03:50:37;11.73;;;6.47;;
73454;SDS011;61690;51.824;6.306;2023-03-23T03:53:03;12.47;;;6.77;;
73454;SDS011;61690;51.824;6.306;2023-03-23T03:55:29;12.93;;;7.00;;
73454;SDS011;61690;51.824;6.306;2023-03-23T03:58:00;12.07;;;6.75;;
73454;SDS011;61690;51.824;6.306;2023-03-23T04:00:26;13.43;;;7.28;;
73454;SDS011;61690;51.824;6.306;2023-03-23T04:02:51;13.10;;;6.97;;
73454;SDS011;61690;51.824;6.306;2023-03-23T04:05:19;12.95;;;6.68;;
73454;SDS011;61690;51.824;6.306;2023-03-23T04:07:46;12.30;;;6.43;;
73454;SDS011;61690;51.824;6.306;2023-03-23T04:10:14;12.27;;;7.28;;
73454;SDS011;61690;51.824;6.306;2023-03-23T04:12:39;12.50;;;7.27;;
73454;SDS011;61690;51.824;6.306;2023-03-23T04:15:05;12.53;;;6.80;;
73454;SDS011;61690;51.824;6.306;2023-03-23T04:17:32;13.00;;;6.88;;
73454;SDS011;61690;51.824;6.306;2023-03-23T04:19:59;12.13;;;6.65;;
73454;SDS011;61690;51.824;6.306;2023-03-23T04:22:25;11.57;;;6.60;;
73454;SDS011;61690;51.824;6.306;2023-03-23T04:24:57;11.05;;;6.50;;
73454;SDS011;61690;51.824;6.306;2023-03-23T04:27:25;12.48;;;7.18;;
73454;SDS011;61690;51.824;6.306;2023-03-23T04:29:53;12.00;;;6.70;;
73454;SDS011;61690;51.824;6.306;2023-03-23T04:32:19;12.73;;;7.40;;
73454;SDS011;61690;51.824;6.306;2023-03-23T04:34:45;12.40;;;7.13;;
73454;SDS011;61690;51.824;6.306;2023-03-23T04:37:10;12.57;;;7.17;;
73454;SDS011;61690;51.824;6.306;2023-03-23T04:39:35;11.70;;;6.40;;
73454;SDS011;61690;51.824;6.306;2023-03-23T04:42:01;11.70;;;7.17;;
73454;SDS011;61690;51.824;6.306;2023-03-23T04:44:27;11.52;;;6.85;;
73454;SDS011;61690;51.824;6.306;2023-03-23T04:46:52;13.27;;;7.25;;
73454;SDS011;61690;51.824;6.306;2023-03-23T04:49:19;12.73;;;7.50;;
73454;SDS011;61690;51.824;6.306;2023-03-23T04:51:46;12.13;;;6.88;;
73454;SDS011;61690;51.824;6.306;2023-03-23T04:54:13;12.43;;;7.22;;
73454;SDS011;61690;51.824;6.306;2023-03-23T04:56:39;12.15;;;7.25;;
73454;SDS011;61690;51.824;6.306;2023-03-23T04:59:06;11.95;;;6.85;;
73454;SDS011;61690;51.824;6.306;2023-03-23T05:01:31;13.20;;;7.70;;
73454;SDS011;61690;51.824;6.306;2023-03-23T05:03:59;12.27;;;6.85;;
73454;SDS011;61690;51.824;6.306;2023-03-23T05:06:25;12.33;;;7.07;;
73454;SDS011;61690;51.824;6.306;2023-03-23T05:08:50;12.80;;;7.25;;
73454;SDS011;61690;51.824;6.306;2023-03-23T05:11:16;11.90;;;7.10;;
73454;SDS011;61690;51.824;6.306;2023-03-23T05:13:41;13.43;;;7.23;;
73454;SDS011;61690;51.824;6.306;2023-03-23T05:16:06;12.70;;;6.80;;
73454;SDS011;61690;51.824;6.306;2023-03-23T05:18:32;12.57;;;7.40;;
73454;SDS011;61690;51.824;6.306;2023-03-23T05:21:00;12.73;;;7.37;;
73454;SDS011;61690;51.824;6.306;2023-03-23T05:23:27;13.07;;;7.55;;
73454;SDS011;61690;51.824;6.306;2023-03-23T05:25:56;14.57;;;9.20;;
73454;SDS011;61690;51.824;6.306;2023-03-23T05:28:25;16.90;;;9.52;;
73454;SDS011;61690;51.824;6.306;2023-03-23T05:30:51;16.20;;;9.27;;
73454;SDS011;61690;51.824;6.306;2023-03-23T05:33:17;15.70;;;8.90;;
73454;SDS011;61690;51.824;6.306;2023-03-23T05:35:42;15.70;;;9.57;;
73454;SDS011;61690;51.824;6.306;2023-03-23T05:38:07;17.65;;;9.73;;
73454;SDS011;61690;51.824;6.306;2023-03-23T05:40:33;17.27;;;9.80;;
73454;SDS011;61690;51.824;6.306;2023-03-23T05:42:58;16.87;;;9.47;;
73454;SDS011;61690;51.824;6.306;2023-03-23T05:45:24;16.97;;;10.03;;
73454;SDS011;61690;51.824;6.306;2023-03-23T05:47:51;16.95;;;9.70;;
73454;SDS011;61690;51.824;6.306;2023-03-23T05:50:16;17.10;;;10.15;;
73454;SDS011;61690;51.824;6.306;2023-03-23T05:52:42;16.27;;;9.97;;
73454;SDS011;61690;51.824;6.306;2023-03-23T05:55:08;19.10;;;9.33;;
73454;SDS011;61690;51.824;6.306;2023-03-23T05:57:33;18.20;;;9.02;;
73454;SDS011;61690;51.824;6.306;2023-03-23T05:59:59;18.92;;;9.38;;
73454;SDS011;61690;51.824;6.306;2023-03-23T06:02:27;17.80;;;9.93;;
73454;SDS011;61690;51.824;6.306;2023-03-23T06:04:54;18.13;;;9.60;;
73454;SDS011;61690;51.824;6.306;2023-03-23T06:07:22;16.77;;;9.73;;
73454;SDS011;61690;51.824;6.306;2023-03-23T06:09:49;16.63;;;9.90;;
73454;SDS011;61690;51.824;6.306;2023-03-23T06:12:15;16.20;;;10.00;;
73454;SDS011;61690;51.824;6.306;2023-03-23T06:14:44;16.57;;;10.17;;
73454;SDS011;61690;51.824;6.306;2023-03-23T06:17:10;16.42;;;9.43;;
73454;SDS011;61690;51.824;6.306;2023-03-23T06:19:35;17.27;;;9.90;;
73454;SDS011;61690;51.824;6.306;2023-03-23T06:22:01;15.83;;;9.10;;
73454;SDS011;61690;51.824;6.306;2023-03-23T06:24:27;16.60;;;9.95;;
73454;SDS011;61690;51.824;6.306;2023-03-23T06:26:52;17.93;;;10.00;;
73454;SDS011;61690;51.824;6.306;2023-03-23T06:29:18;17.37;;;10.67;;
73454;SDS011;61690;51.824;6.306;2023-03-23T06:31:44;18.48;;;10.10;;
73454;SDS011;61690;51.824;6.306;2023-03-23T06:34:13;18.58;;;10.18;;
73454;SDS011;61690;51.824;6.306;2023-03-23T06:36:39;18.77;;;10.20;;
73454;SDS011;61690;51.824;6.306;2023-03-23T06:39:05;17.55;;;10.30;;
73454;SDS011;61690;51.824;6.306;2023-03-23T06:41:31;18.93;;;10.60;;
73454;SDS011;61690;51.824;6.306;2023-03-23T06:43:57;17.42;;;9.65;;
73454;SDS011;61690;51.824;6.306;2023-03-23T06:46:23;17.38;;;10.02;;
73454;SDS011;61690;51.824;6.306;2023-03-23T06:48:48;18.07;;;10.60;;
73454;SDS011;61690;51.824;6.306;2023-03-23T06:51:14;18.70;;;10.23;;
73454;SDS011;61690;51.824;6.306;2023-03-23T06:53:40;18.23;;;10.53;;
73454;SDS011;61690;51.824;6.306;2023-03-23T06:56:05;16.73;;;10.23;;
73454;SDS011;61690;51.824;6.306;2023-03-23T06:58:31;18.48;;;10.70;;
73454;SDS011;61690;51.824;6.306;2023-03-23T07:00:57;18.00;;;10.40;;
73454;SDS011;61690;51.824;6.306;2023-03-23T07:03:23;18.08;;;10.40;;
73454;SDS011;61690;51.824;6.306;2023-03-23T07:05:48;17.93;;;10.50;;
73454;SDS011;61690;51.824;6.306;2023-03-23T07:08:15;17.13;;;10.30;;
73454;SDS011;61690;51.824;6.306;2023-03-23T07:10:40;18.00;;;10.33;;
73454;SDS011;61690;51.824;6.306;2023-03-23T07:13:06;17.13;;;10.90;;
73454;SDS011;61690;51.824;6.306;2023-03-23T07:15:31;16.92;;;10.48;;
73454;SDS011;61690;51.824;6.306;2023-03-23T07:17:57;19.57;;;10.93;;
73454;SDS011;61690;51.824;6.306;2023-03-23T07:20:22;18.10;;;10.47;;
73454;SDS011;61690;51.824;6.306;2023-03-23T07:22:47;17.40;;;11.03;;
73454;SDS011;61690;51.824;6.306;2023-03-23T07:25:13;17.48;;;9.98;;
73454;SDS011;61690;51.824;6.306;2023-03-23T07:27:38;16.93;;;9.43;;
73454;SDS011;61690;51.824;6.306;2023-03-23T07:30:04;18.23;;;10.70;;
73454;SDS011;61690;51.824;6.306;2023-03-23T07:32:30;16.17;;;10.45;;
73454;SDS011;61690;51.824;6.306;2023-03-23T07:34:56;17.37;;;9.90;;
73454;SDS011;61690;51.824;6.306;2023-03-23T07:37:21;17.50;;;10.68;;
73454;SDS011;61690;51.824;6.306;2023-03-23T07:39:47;18.40;;;11.00;;
73454;SDS011;61690;51.824;6.306;2023-03-23T07:42:13;16.10;;;9.77;;
73454;SDS011;61690;51.824;6.306;2023-03-23T07:44:38;20.77;;;10.80;;
73454;SDS011;61690;51.824;6.306;2023-03-23T07:47:03;18.33;;;10.47;;
73454;SDS011;61690;51.824;6.306;2023-03-23T07:49:29;17.67;;;11.20;;
73454;SDS011;61690;51.824;6.306;2023-03-23T07:51:56;18.63;;;10.68;;
73454;SDS011;61690;51.824;6.306;2023-03-23T07:54:21;17.50;;;10.60;;
73454;SDS011;61690;51.824;6.306;2023-03-23T07:56:47;18.00;;;9.80;;
73454;SDS011;61690;51.824;6.306;2023-03-23T07:59:12;18.00;;;10.50;;
73454;SDS011;61690;51.824;6.306;2023-03-23T08:01:38;17.73;;;9.70;;
73454;SDS011;61690;51.824;6.306;2023-03-23T08:04:04;17.47;;;9.97;;
73454;SDS011;61690;51.824;6.306;2023-03-23T08:06:31;16.88;;;10.30;;
73454;SDS011;61690;51.824;6.306;2023-03-23T08:08:58;18.00;;;10.82;;
73454;SDS011;61690;51.824;6.306;2023-03-23T08:11:24;16.77;;;10.10;;
73454;SDS011;61690;51.824;6.306;2023-03-23T08:13:50;18.43;;;10.60;;
73454;SDS011;61690;51.824;6.306;2023-03-23T08:16:16;18.10;;;10.03;;
73454;SDS011;61690;51.824;6.306;2023-03-23T08:18:41;17.53;;;10.40;;
73454;SDS011;61690;51.824;6.306;2023-03-23T08:21:07;17.27;;;10.57;;
73454;SDS011;61690;51.824;6.306;2023-03-23T08:23:34;18.15;;;10.02;;
73454;SDS011;61690;51.824;6.306;2023-03-23T08:26:00;16.83;;;10.10;;
73454;SDS011;61690;51.824;6.306;2023-03-23T08:28:25;18.05;;;10.90;;
73454;SDS011;61690;51.824;6.306;2023-03-23T08:30:51;17.17;;;10.30;;
73454;SDS011;61690;51.824;6.306;2023-03-23T08:33:16;17.90;;;10.10;;
73454;SDS011;61690;51.824;6.306;2023-03-23T08:35:42;18.27;;;10.57;;
73454;SDS011;61690;51.824;6.306;2023-03-23T08:38:09;17.63;;;10.93;;
73454;SDS011;61690;51.824;6.306;2023-03-23T08:40:36;16.70;;;9.90;;
73454;SDS011;61690;51.824;6.306;2023-03-23T08:43:02;16.63;;;10.27;;
73454;SDS011;61690;51.824;6.306;2023-03-23T08:45:27;17.77;;;10.13;;
73454;SDS011;61690;51.824;6.306;2023-03-23T08:47:52;18.17;;;10.32;;
73454;SDS011;61690;51.824;6.306;2023-03-23T08:50:21;16.73;;;10.17;;
73454;SDS011;61690;51.824;6.306;2023-03-23T08:52:49;16.52;;;10.23;;
73454;SDS011;61690;51.824;6.306;2023-03-23T08:55:15;16.35;;;10.13;;
73454;SDS011;61690;51.824;6.306;2023-03-23T08:57:42;17.58;;;10.48;;
73454;SDS011;61690;51.824;6.306;2023-03-23T09:00:10;17.05;;;9.63;;
73454;SDS011;61690;51.824;6.306;2023-03-23T09:02:49;17.77;;;10.00;;
73454;SDS011;61690;51.824;6.306;2023-03-23T09:05:17;17.02;;;9.77;;
73454;SDS011;61690;51.824;6.306;2023-03-23T09:07:48;17.13;;;10.15;;
73454;SDS011;61690;51.824;6.306;2023-03-23T09:10:16;18.88;;;10.65;;
73454;SDS011;61690;51.824;6.306;2023-03-23T09:12:42;17.88;;;9.82;;
73454;SDS011;61690;51.824;6.306;2023-03-23T09:15:10;16.50;;;9.97;;
73454;SDS011;61690;51.824;6.306;2023-03-23T09:17:39;15.20;;;8.60;;
73454;SDS011;61690;51.824;6.306;2023-03-23T09:20:06;13.45;;;7.90;;
73454;SDS011;61690;51.824;6.306;2023-03-23T09:22:37;13.43;;;8.10;;
73454;SDS011;61690;51.824;6.306;2023-03-23T09:25:03;14.38;;;8.30;;
73454;SDS011;61690;51.824;6.306;2023-03-23T09:27:29;14.70;;;8.27;;
73454;SDS011;61690;51.824;6.306;2023-03-23T09:29:55;14.65;;;8.50;;
73454;SDS011;61690;51.824;6.306;2023-03-23T09:32:20;13.97;;;8.40;;
73454;SDS011;61690;51.824;6.306;2023-03-23T09:34:47;13.65;;;7.95;;
73454;SDS011;61690;51.824;6.306;2023-03-23T09:37:13;12.60;;;7.50;;
73454;SDS011;61690;51.824;6.306;2023-03-23T09:39:39;14.68;;;8.25;;
73454;SDS011;61690;51.824;6.306;2023-03-23T09:42:17;14.15;;;8.35;;
73454;SDS011;61690;51.824;6.306;2023-03-23T09:50:19;14.07;;;7.50;;
73454;SDS011;61690;51.824;6.306;2023-03-23T09:52:56;12.35;;;7.47;;
73454;SDS011;61690;51.824;6.306;2023-03-23T09:55:24;13.32;;;7.10;;
73454;SDS011;61690;51.824;6.306;2023-03-23T10:00:32;13.52;;;8.10;;
73454;SDS011;61690;51.824;6.306;2023-03-23T10:03:05;14.43;;;7.87;;
73454;SDS011;61690;51.824;6.306;2023-03-23T10:05:40;12.55;;;7.32;;
73454;SDS011;61690;51.824;6.306;2023-03-23T10:08:17;13.35;;;7.97;;
73454;SDS011;61690;51.824;6.306;2023-03-23T10:15:56;12.60;;;7.20;;
73454;SDS011;61690;51.824;6.306;2023-03-23T10:18:31;12.18;;;7.13;;
73454;SDS011;61690;51.824;6.306;2023-03-23T10:21:02;12.73;;;7.47;;
73454;SDS011;61690;51.824;6.306;2023-03-23T10:29:31;13.60;;;7.67;;
73454;SDS011;61690;51.824;6.306;2023-03-23T10:32:03;15.25;;;7.97;;
73454;SDS011;61690;51.824;6.306;2023-03-23T10:34:48;12.85;;;7.65;;
73454;SDS011;61690;51.824;6.306;2023-03-23T10:37:21;13.88;;;7.28;;
73454;SDS011;61690;51.824;6.306;2023-03-23T10:39:51;14.35;;;7.13;;
73454;SDS011;61690;51.824;6.306;2023-03-23T10:42:26;11.97;;;6.63;;
73454;SDS011;61690;51.824;6.306;2023-03-23T10:44:53;14.25;;;7.50;;
73454;SDS011;61690;51.824;6.306;2023-03-23T10:47:21;11.80;;;7.00;;
73454;SDS011;61690;51.824;6.306;2023-03-23T10:52:26;13.90;;;7.45;;
73454;SDS011;61690;51.824;6.306;2023-03-23T10:55:15;13.13;;;7.10;;
73454;SDS011;61690;51.824;6.306;2023-03-23T10:57:46;12.65;;;7.55;;
73454;SDS011;61690;51.824;6.306;2023-03-23T11:00:24;12.23;;;6.88;;
73454;SDS011;61690;51.824;6.306;2023-03-23T11:05:25;13.40;;;6.95;;
73454;SDS011;61690;51.824;6.306;2023-03-23T11:07:57;12.37;;;7.10;;
73454;SDS011;61690;51.824;6.306;2023-03-23T11:10:26;11.38;;;6.63;;
73454;SDS011;61690;51.824;6.306;2023-03-23T11:13:02;11.10;;;6.35;;
73454;SDS011;61690;51.824;6.306;2023-03-23T11:15:34;11.52;;;6.80;;
73454;SDS011;61690;51.824;6.306;2023-03-23T11:18:06;12.63;;;6.65;;
73454;SDS011;61690;51.824;6.306;2023-03-23T11:20:38;12.37;;;6.67;;
73454;SDS011;61690;51.824;6.306;2023-03-23T11:23:17;12.43;;;6.60;;
73454;SDS011;61690;51.824;6.306;2023-03-23T11:26:08;13.32;;;6.75;;
73454;SDS011;61690;51.824;6.306;2023-03-23T11:28:41;12.50;;;7.25;;
73454;SDS011;61690;51.824;6.306;2023-03-23T11:31:21;11.30;;;6.25;;
73454;SDS011;61690;51.824;6.306;2023-03-23T11:34:04;12.07;;;7.03;;
73454;SDS011;61690;51.824;6.306;2023-03-23T11:36:36;11.63;;;6.57;;
73454;SDS011;61690;51.824;6.306;2023-03-23T11:39:18;11.35;;;6.50;;
73454;SDS011;61690;51.824;6.306;2023-03-23T11:41:46;12.70;;;6.80;;
73454;SDS011;61690;51.824;6.306;2023-03-23T11:44:11;11.47;;;6.50;;
73454;SDS011;61690;51.824;6.306;2023-03-23T11:49:18;12.15;;;6.45;;
73454;SDS011;61690;51.824;6.306;2023-03-23T11:51:52;12.05;;;6.57;;
73454;SDS011;61690;51.824;6.306;2023-03-23T11:54:34;11.43;;;6.30;;
73454;SDS011;61690;51.824;6.306;2023-03-23T11:57:06;10.00;;;5.68;;
73454;SDS011;61690;51.824;6.306;2023-03-23T11:59:35;10.48;;;6.30;;
73454;SDS011;61690;51.824;6.306;2023-03-23T12:02:17;10.20;;;5.80;;
73454;SDS011;61690;51.824;6.306;2023-03-23T12:07:24;11.13;;;5.93;;
73454;SDS011;61690;51.824;6.306;2023-03-23T12:19:04;10.57;;;5.90;;
73454;SDS011;61690;51.824;6.306;2023-03-23T12:27:22;10.63;;;5.65;;
73454;SDS011;61690;51.824;6.306;2023-03-23T12:35:22;10.00;;;5.73;;
73454;SDS011;61690;51.824;6.306;2023-03-23T12:47:57;10.70;;;5.50;;
73454;SDS011;61690;51.824;6.306;2023-03-23T12:50:32;10.02;;;5.15;;
73454;SDS011;61690;51.824;6.306;2023-03-23T12:53:13;10.32;;;5.13;;
73454;SDS011;61690;51.824;6.306;2023-03-23T12:56:02;10.20;;;5.50;;
73454;SDS011;61690;51.824;6.306;2023-03-23T12:58:37;10.27;;;5.27;;
73454;SDS011;61690;51.824;6.306;2023-03-23T13:01:10;10.07;;;5.20;;
73454;SDS011;61690;51.824;6.306;2023-03-23T13:03:45;9.40;;;4.65;;
73454;SDS011;61690;51.824;6.306;2023-03-23T13:09:07;8.82;;;4.75;;
73454;SDS011;61690;51.824;6.306;2023-03-23T13:11:40;9.87;;;4.90;;
73454;SDS011;61690;51.824;6.306;2023-03-23T13:17:13;8.02;;;4.53;;
73454;SDS011;61690;51.824;6.306;2023-03-23T13:19:57;8.70;;;4.90;;
73454;SDS011;61690;51.824;6.306;2023-03-23T13:25:13;9.20;;;4.50;;
73454;SDS011;61690;51.824;6.306;2023-03-23T13:27:42;8.88;;;4.57;;
73454;SDS011;61690;51.824;6.306;2023-03-23T13:30:21;8.18;;;4.30;;
73454;SDS011;61690;51.824;6.306;2023-03-23T13:32:49;9.05;;;4.85;;
73454;SDS011;61690;51.824;6.306;2023-03-23T13:35:16;8.00;;;4.18;;
73454;SDS011;61690;51.824;6.306;2023-03-23T13:37:46;9.03;;;4.57;;
73454;SDS011;61690;51.824;6.306;2023-03-23T13:42:54;9.23;;;4.22;;
73454;SDS011;61690;51.824;6.306;2023-03-23T13:45:22;8.50;;;4.43;;
73454;SDS011;61690;51.824;6.306;2023-03-23T13:50:51;8.23;;;4.00;;
73454;SDS011;61690;51.824;6.306;2023-03-23T13:53:23;10.35;;;4.50;;
73454;SDS011;61690;51.824;6.306;2023-03-23T13:56:06;8.73;;;4.00;;
73454;SDS011;61690;51.824;6.306;2023-03-23T13:59:35;7.47;;;3.72;;
73454;SDS011;61690;51.824;6.306;2023-03-23T14:01:52;8.20;;;4.20;;
73454;SDS011;61690;51.824;6.306;2023-03-23T14:04:19;8.20;;;4.10;;
73454;SDS011;61690;51.824;6.306;2023-03-23T14:06:48;7.57;;;3.92;;
73454;SDS011;61690;51.824;6.306;2023-03-23T14:09:18;7.75;;;4.35;;
73454;SDS011;61690;51.824;6.306;2023-03-23T14:11:55;8.40;;;3.88;;
73454;SDS011;61690;51.824;6.306;2023-03-23T14:14:31;7.75;;;4.00;;
73454;SDS011;61690;51.824;6.306;2023-03-23T14:17:33;7.70;;;4.37;;
73454;SDS011;61690;51.824;6.306;2023-03-23T14:19:54;7.97;;;4.07;;
73454;SDS011;61690;51.824;6.306;2023-03-23T14:22:23;7.97;;;3.80;;
73454;SDS011;61690;51.824;6.306;2023-03-23T14:24:51;8.32;;;3.83;;
73454;SDS011;61690;51.824;6.306;2023-03-23T14:27:19;7.20;;;3.90;;
73454;SDS011;61690;51.824;6.306;2023-03-23T14:29:56;8.97;;;3.57;;
73454;SDS011;61690;51.824;6.306;2023-03-23T14:32:23;8.38;;;2.75;;
73454;SDS011;61690;51.824;6.306;2023-03-23T14:34:51;6.60;;;2.85;;
73454;SDS011;61690;51.824;6.306;2023-03-23T14:37:17;6.70;;;2.70;;
73454;SDS011;61690;51.824;6.306;2023-03-23T14:39:44;7.30;;;2.57;;
73454;SDS011;61690;51.824;6.306;2023-03-23T14:42:13;7.18;;;2.65;;
73454;SDS011;61690;51.824;6.306;2023-03-23T14:47:59;7.68;;;2.28;;
73454;SDS011;61690;51.824;6.306;2023-03-23T14:50:35;7.80;;;2.28;;
73454;SDS011;61690;51.824;6.306;2023-03-23T14:53:13;8.23;;;2.40;;
73454;SDS011;61690;51.824;6.306;2023-03-23T14:55:47;6.47;;;2.35;;
73454;SDS011;61690;51.824;6.306;2023-03-23T14:58:15;7.45;;;2.88;;
73454;SDS011;61690;51.824;6.306;2023-03-23T15:00:43;7.28;;;2.50;;
73454;SDS011;61690;51.824;6.306;2023-03-23T15:03:15;6.40;;;2.35;;
73454;SDS011;61690;51.824;6.306;2023-03-23T15:05:43;6.80;;;2.47;;
73454;SDS011;61690;51.824;6.306;2023-03-23T15:08:19;7.70;;;2.33;;
73454;SDS011;61690;51.824;6.306;2023-03-23T15:10:55;12.70;;;2.25;;
73454;SDS011;61690;51.824;6.306;2023-03-23T15:13:28;6.68;;;2.10;;
73454;SDS011;61690;51.824;6.306;2023-03-23T15:16:00;7.07;;;2.03;;
73454;SDS011;61690;51.824;6.306;2023-03-23T15:18:29;6.25;;;2.13;;
73454;SDS011;61690;51.824;6.306;2023-03-23T15:20:58;7.15;;;2.55;;
73454;SDS011;61690;51.824;6.306;2023-03-23T15:23:33;8.13;;;2.03;;
73454;SDS011;61690;51.824;6.306;2023-03-23T15:26:05;7.68;;;2.28;;
73454;SDS011;61690;51.824;6.306;2023-03-23T15:28:32;6.82;;;2.20;;
73454;SDS011;61690;51.824;6.306;2023-03-23T15:31:02;6.70;;;2.05;;
73454;SDS011;61690;51.824;6.306;2023-03-23T15:33:34;6.77;;;2.10;;
73454;SDS011;61690;51.824;6.306;2023-03-23T15:36:05;7.55;;;2.10;;
73454;SDS011;61690;51.824;6.306;2023-03-23T15:38:33;6.18;;;2.40;;
73454;SDS011;61690;51.824;6.306;2023-03-23T15:41:02;6.05;;;2.13;;
73454;SDS011;61690;51.824;6.306;2023-03-23T15:43:48;5.70;;;2.10;;
73454;SDS011;61690;51.824;6.306;2023-03-23T15:49:04;6.07;;;1.77;;
73454;SDS011;61690;51.824;6.306;2023-03-23T15:51:33;6.63;;;1.98;;
73454;SDS011;61690;51.824;6.306;2023-03-23T15:53:59;5.20;;;1.90;;
73454;SDS011;61690;51.824;6.306;2023-03-23T15:56:24;5.43;;;1.70;;
73454;SDS011;61690;51.824;6.306;2023-03-23T15:58:51;5.75;;;2.13;;
73454;SDS011;61690;51.824;6.306;2023-03-23T16:01:18;5.87;;;2.10;;
73454;SDS011;61690;51.824;6.306;2023-03-23T16:03:57;6.15;;;1.90;;
73454;SDS011;61690;51.824;6.306;2023-03-23T16:06:30;6.75;;;2.08;;
73454;SDS011;61690;51.824;6.306;2023-03-23T16:08:57;6.40;;;2.30;;
73454;SDS011;61690;51.824;6.306;2023-03-23T16:11:24;6.53;;;2.17;;
73454;SDS011;61690;51.824;6.306;2023-03-23T16:13:52;5.65;;;1.80;;
73454;SDS011;61690;51.824;6.306;2023-03-23T16:16:22;6.22;;;2.28;;
73454;SDS011;61690;51.824;6.306;2023-03-23T16:18:50;6.75;;;1.73;;
73454;SDS011;61690;51.824;6.306;2023-03-23T16:21:15;6.37;;;1.50;;
73454;SDS011;61690;51.824;6.306;2023-03-23T16:23:40;6.63;;;1.77;;
73454;SDS011;61690;51.824;6.306;2023-03-23T16:26:08;6.55;;;1.70;;
73454;SDS011;61690;51.824;6.306;2023-03-23T16:28:33;7.30;;;1.90;;